Time;durP1;ratioP1;P1;durP2;ratioP2;P2;SDS_P1;SDS_P2;PMS_P1;PMS_P2;Temp;Humidity;BMP_temperature;BMP_pressure;BME280_temperature;BME280_humidity;BME280_pressure;Samples;Min_cycle;Max_cycle;Signal;HPM_P1;HPM_P2
2024/01/16 00:00:42;;;;;;;;;;;1.50;99.90;;;;;;4974372;28;19929;-77
2024/01/16 00:03:28;;;;;;;;;;;1.50;99.90;;;;;;4960278;28;20611;-77
2024/01/16 00:06:14;;;;;;;;;;;1.50;99.90;;;;;;4951694;28;20330;-77
2024/01/16 00:09:00;;;;;;;;;;;1.50;99.90;;;;;;4970519;28;19973;-77
2024/01/16 00:11:46;;;;;;;;;;;1.50;99.90;;;;;;4992896;28;20239;-77
2024/01/16 00:14:36;;;;;;;;;;;1.50;99.90;;;;;;4963319;28;20429;-77
2024/01/16 00:17:22;;;;;;;;;;;1.50;99.90;;;;;;4988786;28;19921;-77
2024/01/16 00:20:08;;;;;;;;;;;1.60;99.90;;;;;;4988808;28;19918;-77
2024/01/16 00:22:54;;;;;;;;;;;1.60;99.90;;;;;;4978903;28;19918;-77
2024/01/16 00:25:41;;;;;;;;;;;1.60;99.90;;;;;;4993704;28;19918;-78
2024/01/16 00:28:26;;;;;;;;;;;1.50;99.90;;;;;;4965046;28;19942;-77
2024/01/16 00:31:12;;;;;;;;;;;1.50;99.90;;;;;;4972713;28;19929;-77
2024/01/16 00:33:58;;;;;;;;;;;1.60;99.90;;;;;;4967228;28;19918;-77
2024/01/16 00:36:44;;;;;;;;;;;1.70;99.90;;;;;;4977321;28;19926;-78
2024/01/16 00:39:30;;;;;;;;;;;1.60;99.90;;;;;;4974395;28;19957;-77
2024/01/16 00:42:16;;;;;;;;;;;1.60;99.90;;;;;;4981741;28;19925;-78
2024/01/16 00:45:02;;;;;;;;;;;1.60;99.90;;;;;;4993418;28;20642;-78
2024/01/16 00:47:47;;;;;;;;;;;1.60;99.90;;;;;;4979690;28;19946;-77
2024/01/16 00:50:33;;;;;;;;;;;1.60;99.90;;;;;;4996391;28;20258;-78
2024/01/16 00:53:19;;;;;;;;;;;1.60;99.90;;;;;;4988508;28;19918;-77
2024/01/16 00:56:05;;;;;;;;;;;1.50;99.90;;;;;;4961104;28;20390;-77
2024/01/16 00:58:51;;;;;;;;;;;1.40;99.90;;;;;;4977134;28;19946;-77
2024/01/16 01:01:37;;;;;;;;;;;1.30;99.90;;;;;;4975976;28;19932;-78
2024/01/16 01:04:25;;;;;;;;;;;1.30;99.90;;;;;;4983105;28;20466;-78
2024/01/16 01:07:14;;;;;;;;;;;1.20;99.90;;;;;;4965966;28;20254;-77
2024/01/16 01:10:00;;;;;;;;;;;1.20;99.90;;;;;;4975900;28;19925;-78
2024/01/16 01:12:46;;;;;;;;;;;1.20;99.90;;;;;;4973366;28;20607;-77
2024/01/16 01:15:32;;;;;;;;;;;1.30;99.90;;;;;;4970404;28;19930;-77
2024/01/16 01:18:18;;;;;;;;;;;1.30;99.90;;;;;;4976063;28;20282;-77
2024/01/16 01:21:03;;;;;;;;;;;1.30;99.90;;;;;;4968420;28;20017;-77
2024/01/16 01:23:49;;;;;;;;;;;1.30;99.90;;;;;;4979273;28;19918;-77
2024/01/16 01:26:35;;;;;;;;;;;1.40;99.90;;;;;;4961607;28;19918;-77
2024/01/16 01:29:21;;;;;;;;;;;1.30;99.90;;;;;;4974303;28;19918;-77
2024/01/16 01:32:07;;;;;;;;;;;1.30;99.90;;;;;;4976196;28;19914;-77
2024/01/16 01:34:53;;;;;;;;;;;1.40;99.90;;;;;;4977435;28;19976;-77
2024/01/16 01:37:39;;;;;;;;;;;1.40;99.90;;;;;;4978224;28;19918;-77
2024/01/16 01:40:25;;;;;;;;;;;1.40;99.90;;;;;;4977761;28;19961;-77
2024/01/16 01:43:20;;;;;;;;;;;1.40;99.90;;;;;;4957915;28;19919;-77
2024/01/16 01:46:10;;;;;;;;;;;1.40;99.90;;;;;;4942157;28;20001;-77
2024/01/16 01:48:56;;;;;;;;;;;1.40;99.90;;;;;;4968459;28;19946;-77
2024/01/16 01:51:42;;;;;;;;;;;1.40;99.90;;;;;;4971585;28;19922;-77
2024/01/16 01:54:28;;;;;;;;;;;1.50;99.90;;;;;;4975217;28;19937;-77
2024/01/16 01:57:14;;;;;;;;;;;1.40;99.90;;;;;;4975651;28;19922;-77
2024/01/16 02:00:00;;;;;;;;;;;1.50;99.90;;;;;;4961041;28;19915;-76
2024/01/16 02:02:46;;;;;;;;;;;1.40;99.90;;;;;;4954662;29;19918;-77
2024/01/16 02:05:31;;;;;;;;;;;1.40;99.90;;;;;;4971183;28;19925;-78
2024/01/16 02:08:18;;;;;;;;;;;1.40;99.90;;;;;;4972517;28;19914;-77
2024/01/16 02:11:04;;;;;;;;;;;1.40;99.90;;;;;;4962022;28;19942;-77
2024/01/16 02:13:50;;;;;;;;;;;1.40;99.90;;;;;;4976693;28;19914;-77
2024/01/16 02:16:38;;;;;;;;;;;1.40;99.90;;;;;;4975741;28;19948;-77
2024/01/16 02:19:25;;;;;;;;;;;1.40;99.90;;;;;;4959438;28;19929;-77
2024/01/16 02:22:12;;;;;;;;;;;1.40;99.90;;;;;;4957028;29;19922;-77
2024/01/16 02:24:58;;;;;;;;;;;1.40;99.90;;;;;;4942446;29;19915;-77
2024/01/16 02:27:44;;;;;;;;;;;1.40;99.90;;;;;;4962394;28;19925;-77
2024/01/16 02:30:29;;;;;;;;;;;1.30;99.90;;;;;;4961533;28;19997;-77
2024/01/16 02:33:15;;;;;;;;;;;1.30;99.90;;;;;;4962101;28;20369;-77
2024/01/16 02:36:01;;;;;;;;;;;1.40;99.90;;;;;;4977959;28;19918;-77
2024/01/16 02:38:47;;;;;;;;;;;1.30;99.90;;;;;;4956479;29;19925;-77
2024/01/16 02:41:33;;;;;;;;;;;1.30;99.90;;;;;;4943322;29;19953;-77
2024/01/16 02:44:19;;;;;;;;;;;1.30;99.90;;;;;;4941476;29;19958;-77
2024/01/16 02:47:07;;;;;;;;;;;1.30;99.90;;;;;;4974111;28;19914;-77
2024/01/16 02:49:52;;;;;;;;;;;1.30;99.90;;;;;;4976385;28;20418;-78
2024/01/16 02:52:39;;;;;;;;;;;1.30;99.90;;;;;;4961827;28;20323;-77
2024/01/16 02:55:25;;;;;;;;;;;1.30;99.90;;;;;;4988745;28;19976;-77
2024/01/16 02:58:10;;;;;;;;;;;1.30;99.90;;;;;;4966969;28;19914;-77
2024/01/16 03:00:57;;;;;;;;;;;1.30;99.90;;;;;;4971045;28;20335;-77
2024/01/16 03:03:43;;;;;;;;;;;1.30;99.90;;;;;;4962023;28;19921;-77
2024/01/16 03:06:29;;;;;;;;;;;1.10;99.90;;;;;;4972260;28;20414;-77
2024/01/16 03:09:15;;;;;;;;;;;1.20;99.90;;;;;;4994200;28;20005;-78
2024/01/16 03:12:02;;;;;;;;;;;1.20;99.90;;;;;;4947867;28;19957;-78
2024/01/16 03:14:47;;;;;;;;;;;1.20;99.90;;;;;;4963392;28;19988;-78
2024/01/16 03:17:33;;;;;;;;;;;1.10;99.90;;;;;;4969145;28;19914;-77
2024/01/16 03:20:19;;;;;;;;;;;1.10;99.90;;;;;;4985090;28;19914;-77
2024/01/16 03:23:05;;;;;;;;;;;1.10;99.90;;;;;;4967288;28;19969;-77
2024/01/16 03:25:51;;;;;;;;;;;1.10;99.90;;;;;;4981435;28;19917;-77
2024/01/16 03:28:37;;;;;;;;;;;1.10;99.90;;;;;;4966188;28;19921;-77
2024/01/16 03:31:23;;;;;;;;;;;1.10;99.90;;;;;;4992957;28;19918;-77
2024/01/16 03:34:10;;;;;;;;;;;1.20;99.90;;;;;;4979481;28;19917;-77
2024/01/16 03:36:56;;;;;;;;;;;1.10;99.90;;;;;;4969550;28;19918;-77
2024/01/16 03:39:45;;;;;;;;;;;1.10;99.90;;;;;;4979663;28;19973;-77
2024/01/16 03:42:31;;;;;;;;;;;1.10;99.90;;;;;;4947090;28;19996;-78
2024/01/16 03:45:16;;;;;;;;;;;1.20;99.90;;;;;;4974886;28;19989;-77
2024/01/16 03:48:05;;;;;;;;;;;1.20;99.90;;;;;;4960281;28;20008;-77
2024/01/16 03:50:51;;;;;;;;;;;1.20;99.90;;;;;;4972841;28;20377;-77
2024/01/16 03:53:37;;;;;;;;;;;1.20;99.90;;;;;;4965407;28;19929;-78
2024/01/16 03:56:23;;;;;;;;;;;1.20;99.90;;;;;;4982331;28;19929;-77
2024/01/16 03:59:09;;;;;;;;;;;1.10;99.90;;;;;;4979512;28;19949;-77
2024/01/16 04:01:55;;;;;;;;;;;1.10;99.90;;;;;;4978373;28;19926;-77
2024/01/16 04:04:40;;;;;;;;;;;1.10;99.90;;;;;;4979426;28;19925;-77
2024/01/16 04:07:26;;;;;;;;;;;1.00;99.90;;;;;;4973433;28;19914;-77
2024/01/16 04:10:12;;;;;;;;;;;1.10;99.90;;;;;;4978307;28;19957;-77
2024/01/16 04:13:01;;;;;;;;;;;1.00;99.90;;;;;;4978628;28;20001;-77
2024/01/16 04:15:48;;;;;;;;;;;1.00;99.90;;;;;;4964031;28;20397;-77
2024/01/16 04:18:35;;;;;;;;;;;1.00;99.90;;;;;;4965244;28;19918;-76
2024/01/16 04:21:21;;;;;;;;;;;0.90;99.90;;;;;;4951358;28;19914;-77
2024/01/16 04:24:07;;;;;;;;;;;0.90;99.90;;;;;;4951115;28;19941;-76
2024/01/16 04:26:53;;;;;;;;;;;1.00;99.90;;;;;;4976129;28;20286;-77
2024/01/16 04:29:38;;;;;;;;;;;1.00;99.90;;;;;;4980989;28;20008;-77
2024/01/16 04:32:24;;;;;;;;;;;1.00;99.90;;;;;;4970128;28;20341;-77
2024/01/16 04:35:10;;;;;;;;;;;1.00;99.90;;;;;;4982813;28;20390;-77
2024/01/16 04:37:56;;;;;;;;;;;0.90;99.90;;;;;;4969985;28;20011;-76
2024/01/16 04:40:42;;;;;;;;;;;0.90;99.90;;;;;;4982949;28;19917;-77
2024/01/16 04:43:28;;;;;;;;;;;1.00;99.90;;;;;;4972286;28;20327;-77
2024/01/16 04:46:14;;;;;;;;;;;0.90;99.90;;;;;;4963160;28;19953;-77
2024/01/16 04:49:00;;;;;;;;;;;1.00;99.90;;;;;;4990702;28;19980;-77
2024/01/16 04:51:47;;;;;;;;;;;0.90;99.90;;;;;;4950606;28;19925;-77
2024/01/16 04:54:33;;;;;;;;;;;0.90;99.90;;;;;;4965065;28;19929;-77
2024/01/16 04:57:18;;;;;;;;;;;0.90;99.90;;;;;;4977684;28;19997;-77
2024/01/16 05:00:06;;;;;;;;;;;1.00;99.90;;;;;;4984252;28;20282;-77
2024/01/16 05:02:52;;;;;;;;;;;1.00;99.90;;;;;;4985164;28;20012;-77
2024/01/16 05:05:38;;;;;;;;;;;0.90;99.90;;;;;;4981899;28;20345;-77
2024/01/16 05:08:24;;;;;;;;;;;0.90;99.90;;;;;;4995317;28;19917;-77
2024/01/16 05:11:10;;;;;;;;;;;0.90;99.90;;;;;;4952989;28;20596;-77
2024/01/16 05:13:57;;;;;;;;;;;1.00;99.90;;;;;;4964745;28;19960;-77
2024/01/16 05:16:44;;;;;;;;;;;0.90;99.90;;;;;;4961676;28;19918;-77
2024/01/16 05:19:30;;;;;;;;;;;0.90;99.90;;;;;;4983516;28;19914;-77
2024/01/16 05:22:16;;;;;;;;;;;0.90;99.90;;;;;;4996799;28;19948;-77
2024/01/16 05:25:02;;;;;;;;;;;0.90;99.90;;;;;;4983656;28;19925;-77
2024/01/16 05:27:49;;;;;;;;;;;0.90;99.90;;;;;;4985059;28;19941;-76
2024/01/16 05:30:35;;;;;;;;;;;0.90;99.90;;;;;;4982926;28;19964;-77
2024/01/16 05:33:21;;;;;;;;;;;0.80;99.90;;;;;;4972469;28;19949;-77
2024/01/16 05:36:07;;;;;;;;;;;0.90;99.90;;;;;;4976243;28;19925;-77
2024/01/16 05:38:53;;;;;;;;;;;0.90;99.90;;;;;;4963998;28;20294;-77
2024/01/16 05:41:39;;;;;;;;;;;0.90;99.90;;;;;;4964356;28;19929;-76
2024/01/16 05:44:25;;;;;;;;;;;0.80;99.90;;;;;;4963022;28;19918;-77
2024/01/16 05:47:11;;;;;;;;;;;0.80;99.90;;;;;;4979222;28;20369;-77
2024/01/16 05:49:57;;;;;;;;;;;0.80;99.90;;;;;;4967018;28;20008;-77
2024/01/16 05:52:43;;;;;;;;;;;0.80;99.90;;;;;;4983182;28;19921;-77
2024/01/16 05:55:31;;;;;;;;;;;0.80;99.90;;;;;;4981070;28;19925;-77
2024/01/16 05:58:17;;;;;;;;;;;0.80;99.90;;;;;;4962924;28;19929;-77
2024/01/16 06:01:03;;;;;;;;;;;0.80;99.90;;;;;;4975737;28;19917;-77
2024/01/16 06:03:49;;;;;;;;;;;0.80;99.90;;;;;;4964223;28;19956;-77
2024/01/16 06:06:36;;;;;;;;;;;0.90;99.90;;;;;;4993687;28;19929;-77
2024/01/16 06:09:21;;;;;;;;;;;0.90;99.90;;;;;;4981330;28;19925;-77
2024/01/16 06:12:08;;;;;;;;;;;0.90;99.90;;;;;;4961801;28;19929;-77
2024/01/16 06:14:54;;;;;;;;;;;0.90;99.90;;;;;;4975434;28;20005;-77
2024/01/16 06:17:40;;;;;;;;;;;0.90;99.90;;;;;;4963059;28;20423;-77
2024/01/16 06:20:26;;;;;;;;;;;0.90;99.90;;;;;;4975199;28;20008;-77
2024/01/16 06:23:11;;;;;;;;;;;0.90;99.90;;;;;;4974735;28;20141;-77
2024/01/16 06:25:58;;;;;;;;;;;0.90;99.90;;;;;;4961595;28;20369;-77
2024/01/16 06:28:44;;;;;;;;;;;0.80;99.90;;;;;;4974508;28;19922;-77
2024/01/16 06:31:29;;;;;;;;;;;0.70;99.90;;;;;;4985929;28;19954;-77
2024/01/16 06:34:15;;;;;;;;;;;0.80;99.90;;;;;;4980611;28;19964;-77
2024/01/16 06:37:01;;;;;;;;;;;0.70;99.90;;;;;;4980652;28;20304;-77
2024/01/16 06:39:47;;;;;;;;;;;0.70;99.90;;;;;;4962643;28;20000;-77
2024/01/16 06:42:33;;;;;;;;;;;0.70;99.90;;;;;;4961677;28;19926;-77
2024/01/16 06:45:19;;;;;;;;;;;0.70;99.90;;;;;;4992329;28;19914;-77
2024/01/16 06:48:05;;;;;;;;;;;0.70;99.90;;;;;;4983083;28;20595;-77
2024/01/16 06:50:51;;;;;;;;;;;0.60;99.90;;;;;;4952750;28;20251;-77
2024/01/16 06:53:36;;;;;;;;;;;0.60;99.90;;;;;;4980121;28;19917;-77
2024/01/16 06:56:24;;;;;;;;;;;0.60;99.90;;;;;;4994649;28;19921;-77
2024/01/16 06:59:10;;;;;;;;;;;0.60;99.90;;;;;;4980824;28;20623;-76
2024/01/16 07:01:56;;;;;;;;;;;0.60;99.90;;;;;;4979585;28;19975;-77
2024/01/16 07:04:41;;;;;;;;;;;0.60;99.90;;;;;;4963324;28;19946;-77
2024/01/16 07:07:27;;;;;;;;;;;0.60;99.90;;;;;;4975725;28;19921;-77
2024/01/16 07:10:18;;;;;;;;;;;0.70;99.90;;;;;;4974957;28;19914;-78
2024/01/16 07:13:03;;;;;;;;;;;0.70;99.90;;;;;;4963353;28;19932;-77
2024/01/16 07:15:49;;;;;;;;;;;0.60;99.90;;;;;;4967102;28;20012;-77
2024/01/16 07:18:35;;;;;;;;;;;0.60;99.90;;;;;;4980197;28;20009;-77
2024/01/16 07:21:21;;;;;;;;;;;0.60;99.90;;;;;;4974403;28;20309;-77
2024/01/16 07:24:07;;;;;;;;;;;0.60;99.90;;;;;;4979860;28;20064;-78
2024/01/16 07:26:54;;;;;;;;;;;0.60;99.90;;;;;;4980181;28;19918;-78
2024/01/16 07:29:41;;;;;;;;;;;0.60;99.90;;;;;;4948232;28;20398;-77
2024/01/16 07:32:27;;;;;;;;;;;0.60;99.90;;;;;;4960249;28;19921;-78
2024/01/16 07:35:13;;;;;;;;;;;0.60;99.90;;;;;;4964345;28;19925;-77
2024/01/16 07:38:00;;;;;;;;;;;0.60;99.90;;;;;;4980610;28;19917;-77
2024/01/16 07:40:46;;;;;;;;;;;0.60;99.90;;;;;;4961088;28;19929;-77
2024/01/16 07:43:32;;;;;;;;;;;0.60;99.90;;;;;;4963228;28;20270;-77
2024/01/16 07:46:18;;;;;;;;;;;0.60;99.90;;;;;;4956423;28;19929;-77
2024/01/16 07:49:05;;;;;;;;;;;0.60;99.90;;;;;;4969946;28;20320;-78
2024/01/16 07:51:51;;;;;;;;;;;0.60;99.90;;;;;;4956669;28;19930;-77
2024/01/16 07:54:37;;;;;;;;;;;0.60;99.90;;;;;;4978000;28;19925;-78
2024/01/16 07:57:23;;;;;;;;;;;0.60;99.90;;;;;;4969340;28;19917;-78
2024/01/16 08:00:11;;;;;;;;;;;0.60;99.90;;;;;;4961191;28;19918;-78
2024/01/16 08:02:57;;;;;;;;;;;0.60;99.90;;;;;;4960787;28;19922;-78
2024/01/16 08:05:43;;;;;;;;;;;0.70;99.90;;;;;;4972519;28;20266;-78
2024/01/16 08:08:29;;;;;;;;;;;0.70;99.90;;;;;;4968788;28;20489;-78
2024/01/16 08:11:15;;;;;;;;;;;0.70;99.90;;;;;;4966480;28;19922;-77
2024/01/16 08:14:01;;;;;;;;;;;0.70;99.90;;;;;;4966277;28;19918;-78
2024/01/16 08:16:47;;;;;;;;;;;0.70;99.90;;;;;;4967570;28;19913;-78
2024/01/16 08:19:33;;;;;;;;;;;0.70;99.90;;;;;;4979136;28;19953;-78
2024/01/16 08:22:19;;;;;;;;;;;0.80;99.90;;;;;;4980625;28;19918;-78
2024/01/16 08:25:05;;;;;;;;;;;0.90;99.90;;;;;;4994936;28;19957;-78
2024/01/16 08:27:51;;;;;;;;;;;0.80;99.90;;;;;;4949458;28;20006;-77
2024/01/16 08:30:37;;;;;;;;;;;0.90;99.90;;;;;;4978171;28;19914;-77
2024/01/16 08:33:23;;;;;;;;;;;0.90;99.90;;;;;;4977670;28;20398;-78
2024/01/16 08:36:09;;;;;;;;;;;0.90;99.90;;;;;;4994478;28;19953;-77
2024/01/16 08:38:55;;;;;;;;;;;0.90;99.90;;;;;;4961659;28;19925;-78
2024/01/16 08:41:41;;;;;;;;;;;1.00;99.90;;;;;;4981160;28;19922;-77
2024/01/16 08:44:26;;;;;;;;;;;1.00;99.90;;;;;;4983211;28;19922;-77
2024/01/16 08:47:12;;;;;;;;;;;1.00;99.90;;;;;;4966470;28;19991;-81
2024/01/16 08:49:58;;;;;;;;;;;1.00;99.90;;;;;;4971398;28;19922;-79
2024/01/16 08:52:44;;;;;;;;;;;0.90;99.90;;;;;;4969029;28;19918;-80
2024/01/16 08:55:30;;;;;;;;;;;0.90;99.90;;;;;;4982115;28;19933;-77
2024/01/16 08:58:19;;;;;;;;;;;1.10;99.90;;;;;;4991623;28;20008;-77
2024/01/16 09:01:05;;;;;;;;;;;1.00;99.90;;;;;;4985568;28;20519;-77
2024/01/16 09:03:51;;;;;;;;;;;1.00;99.90;;;;;;4996840;28;19971;-77
2024/01/16 09:06:37;;;;;;;;;;;1.10;99.90;;;;;;4995454;28;19960;-77
2024/01/16 09:09:23;;;;;;;;;;;1.10;99.90;;;;;;4964832;28;19946;-77
2024/01/16 09:12:09;;;;;;;;;;;1.10;99.90;;;;;;4964538;28;20000;-78
2024/01/16 09:14:55;;;;;;;;;;;1.20;99.90;;;;;;4973102;28;19976;-77
2024/01/16 09:17:41;;;;;;;;;;;1.20;99.90;;;;;;4963392;28;20659;-77
2024/01/16 09:20:28;;;;;;;;;;;1.10;99.90;;;;;;4969271;28;20310;-77
2024/01/16 09:23:14;;;;;;;;;;;1.20;99.90;;;;;;4985094;28;19921;-77
2024/01/16 09:26:00;;;;;;;;;;;1.20;99.90;;;;;;4962930;28;19925;-77
2024/01/16 09:28:46;;;;;;;;;;;1.30;99.90;;;;;;4963819;28;20366;-77
2024/01/16 09:31:32;;;;;;;;;;;1.20;99.90;;;;;;4962623;28;19914;-76
2024/01/16 09:34:18;;;;;;;;;;;1.30;99.90;;;;;;4976091;28;19980;-77
2024/01/16 09:37:06;;;;;;;;;;;1.30;99.90;;;;;;4990646;28;19921;-77
2024/01/16 09:39:53;;;;;;;;;;;1.30;99.90;;;;;;4974142;28;20555;-77
2024/01/16 09:42:40;;;;;;;;;;;1.30;99.90;;;;;;4969665;28;20542;-77
2024/01/16 09:45:27;;;;;;;;;;;1.30;99.90;;;;;;4982244;28;19944;-77
2024/01/16 09:48:13;;;;;;;;;;;1.40;99.90;;;;;;4969902;28;19933;-79
2024/01/16 09:50:59;;;;;;;;;;;1.60;99.90;;;;;;4983275;28;19925;-80
2024/01/16 09:53:44;;;;;;;;;;;1.80;99.90;;;;;;4979393;28;19928;-80
2024/01/16 09:56:30;;;;;;;;;;;2.00;99.90;;;;;;4953536;28;19926;-80
2024/01/16 09:59:16;;;;;;;;;;;2.00;99.90;;;;;;4962917;28;19977;-80
2024/01/16 10:02:06;;;;;;;;;;;2.20;99.90;;;;;;4985479;28;19992;-79
2024/01/16 10:04:52;;;;;;;;;;;2.40;99.90;;;;;;4984484;28;19914;-81
2024/01/16 10:07:38;;;;;;;;;;;2.40;99.90;;;;;;4970952;28;19925;-81
2024/01/16 10:10:28;;;;;;;;;;;2.40;99.90;;;;;;4982657;28;19917;-81
2024/01/16 10:13:14;;;;;;;;;;;2.50;99.90;;;;;;4965746;28;20352;-79
2024/01/16 10:16:00;;;;;;;;;;;2.60;99.90;;;;;;4981539;28;20001;-78
2024/01/16 10:18:46;;;;;;;;;;;2.40;99.90;;;;;;4981425;28;20327;-77
2024/01/16 10:21:32;;;;;;;;;;;2.30;99.90;;;;;;4982075;28;19924;-79
2024/01/16 10:24:18;;;;;;;;;;;2.20;99.90;;;;;;4995058;28;19914;-78
2024/01/16 10:27:04;;;;;;;;;;;2.20;99.90;;;;;;4976955;28;19977;-78
2024/01/16 10:29:56;;;;;;;;;;;2.20;99.90;;;;;;4962857;28;19918;-77
2024/01/16 10:32:42;;;;;;;;;;;2.30;99.90;;;;;;4968320;28;19988;-77
2024/01/16 10:35:28;;;;;;;;;;;2.40;99.90;;;;;;4964887;28;19993;-77
2024/01/16 10:38:19;;;;;;;;;;;2.40;99.90;;;;;;4962216;28;20354;-77
2024/01/16 10:41:06;;;;;;;;;;;2.20;99.90;;;;;;4984161;28;19924;-77
2024/01/16 10:44:06;;;;;;;;;;;2.20;99.90;;;;;;4968496;28;20349;-77
2024/01/16 10:46:52;;;;;;;;;;;2.30;99.90;;;;;;4968611;28;19928;-77
2024/01/16 10:49:38;;;;;;;;;;;2.20;99.90;;;;;;4976255;28;19929;-78
2024/01/16 10:52:25;;;;;;;;;;;2.10;99.90;;;;;;4967568;28;19917;-77
2024/01/16 10:55:12;;;;;;;;;;;2.20;99.90;;;;;;4963450;28;20008;-77
2024/01/16 10:58:00;;;;;;;;;;;2.10;99.90;;;;;;4979482;28;20285;-77
2024/01/16 11:00:46;;;;;;;;;;;2.10;99.90;;;;;;4994997;28;19914;-77
2024/01/16 11:03:40;;;;;;;;;;;2.20;99.90;;;;;;4980998;28;19979;-77
2024/01/16 11:06:25;;;;;;;;;;;2.20;99.90;;;;;;4979837;28;20586;-77
2024/01/16 11:09:12;;;;;;;;;;;2.20;99.90;;;;;;4983086;28;19921;-77
2024/01/16 11:12:00;;;;;;;;;;;2.20;99.90;;;;;;4981322;28;19921;-77
2024/01/16 11:14:46;;;;;;;;;;;2.30;99.90;;;;;;4980785;28;20306;-77
2024/01/16 11:17:32;;;;;;;;;;;2.20;99.90;;;;;;4979806;28;19917;-77
2024/01/16 11:20:21;;;;;;;;;;;2.30;99.90;;;;;;4991269;28;19913;-77
2024/01/16 11:23:07;;;;;;;;;;;2.30;99.90;;;;;;4978957;28;19922;-77
2024/01/16 11:25:54;;;;;;;;;;;2.30;99.90;;;;;;4980600;28;19918;-77
2024/01/16 11:28:39;;;;;;;;;;;2.30;99.90;;;;;;4984843;28;20326;-77
2024/01/16 11:31:35;;;;;;;;;;;2.40;99.90;;;;;;4991600;28;19917;-77
2024/01/16 11:34:39;;;;;;;;;;;2.30;99.90;;;;;;4968185;28;19989;-77
2024/01/16 11:37:29;;;;;;;;;;;2.30;99.90;;;;;;4980211;28;19918;-77
2024/01/16 11:40:21;;;;;;;;;;;2.40;99.90;;;;;;4979649;28;19914;-77
2024/01/16 11:43:25;;;;;;;;;;;2.50;99.90;;;;;;4984549;28;19918;-77
2024/01/16 11:46:11;;;;;;;;;;;2.50;99.90;;;;;;4979418;28;20711;-78
2024/01/16 11:49:03;;;;;;;;;;;2.50;99.90;;;;;;4971864;28;19949;-78
2024/01/16 11:51:49;;;;;;;;;;;2.50;99.90;;;;;;4972248;28;19921;-77
2024/01/16 11:54:35;;;;;;;;;;;2.40;99.90;;;;;;4972765;28;19926;-77
2024/01/16 11:57:43;;;;;;;;;;;2.40;99.90;;;;;;4953616;29;20013;-77
2024/01/16 12:00:29;;;;;;;;;;;2.40;99.90;;;;;;4948981;29;19978;-77
2024/01/16 12:03:16;;;;;;;;;;;2.40;99.90;;;;;;4966844;28;19922;-77
2024/01/16 12:06:02;;;;;;;;;;;2.40;99.90;;;;;;4961117;28;20250;-78
2024/01/16 12:08:48;;;;;;;;;;;2.40;99.90;;;;;;4975574;28;19924;-77
2024/01/16 12:11:34;;;;;;;;;;;2.40;99.90;;;;;;4972822;28;19981;-77
2024/01/16 12:14:20;;;;;;;;;;;2.50;99.90;;;;;;4971935;28;20001;-77
2024/01/16 12:17:10;;;;;;;;;;;2.60;99.90;;;;;;4975234;28;20619;-77
2024/01/16 12:19:56;;;;;;;;;;;2.80;99.90;;;;;;4962808;28;19919;-77
2024/01/16 12:22:43;;;;;;;;;;;2.90;99.90;;;;;;4965459;28;19922;-77
2024/01/16 12:25:32;;;;;;;;;;;2.80;99.90;;;;;;4974830;28;19921;-77
2024/01/16 12:28:19;;;;;;;;;;;2.80;99.90;;;;;;4961331;28;20590;-78
2024/01/16 12:31:06;;;;;;;;;;;2.70;99.90;;;;;;4974366;28;19918;-77
2024/01/16 12:33:52;;;;;;;;;;;2.80;99.90;;;;;;4956499;29;20426;-77
2024/01/16 12:36:38;;;;;;;;;;;2.80;99.90;;;;;;4960759;28;19926;-77
2024/01/16 12:39:23;;;;;;;;;;;2.80;99.90;;;;;;4976698;28;20323;-78
2024/01/16 12:42:09;;;;;;;;;;;2.80;99.90;;;;;;4964721;28;19923;-77
2024/01/16 12:44:55;;;;;;;;;;;2.70;99.90;;;;;;4971768;28;19925;-77
2024/01/16 12:47:41;;;;;;;;;;;2.60;99.90;;;;;;4958081;29;19918;-78
2024/01/16 12:50:29;;;;;;;;;;;2.60;99.90;;;;;;4963219;28;19918;-78
2024/01/16 12:53:16;;;;;;;;;;;2.50;99.90;;;;;;4978497;28;20287;-77
2024/01/16 12:56:03;;;;;;;;;;;2.40;99.90;;;;;;4970666;28;20398;-78
2024/01/16 12:58:49;;;;;;;;;;;2.40;99.90;;;;;;4960882;28;19923;-77
2024/01/16 13:01:35;;;;;;;;;;;2.40;99.90;;;;;;4972246;28;20001;-77
2024/01/16 13:04:21;;;;;;;;;;;2.50;99.90;;;;;;4972730;28;19925;-78
2024/01/16 13:07:07;;;;;;;;;;;2.30;99.90;;;;;;4976087;28;19918;-77
2024/01/16 13:10:09;;;;;;;;;;;2.30;99.90;;;;;;4963260;28;20268;-77
2024/01/16 13:13:10;;;;;;;;;;;2.30;99.90;;;;;;4978069;28;20093;-77
2024/01/16 13:15:59;;;;;;;;;;;2.20;99.90;;;;;;4944381;29;20625;-77
2024/01/16 13:18:45;;;;;;;;;;;2.20;99.90;;;;;;4976602;28;19929;-77
2024/01/16 13:21:31;;;;;;;;;;;2.20;99.90;;;;;;4960987;28;19922;-77
2024/01/16 13:24:20;;;;;;;;;;;2.20;99.90;;;;;;4957885;28;19927;-77
2024/01/16 13:27:12;;;;;;;;;;;2.20;99.90;;;;;;4975182;28;20347;-77
2024/01/16 13:29:58;;;;;;;;;;;2.20;99.90;;;;;;4975973;28;19915;-77
2024/01/16 13:32:44;;;;;;;;;;;2.10;99.90;;;;;;4962930;28;20250;-77
2024/01/16 13:35:31;;;;;;;;;;;2.10;99.90;;;;;;4961310;28;19925;-77
2024/01/16 13:38:19;;;;;;;;;;;2.10;99.90;;;;;;4962914;28;19918;-77
2024/01/16 13:41:05;;;;;;;;;;;2.10;99.90;;;;;;4956126;29;19918;-77
2024/01/16 13:43:51;;;;;;;;;;;2.10;99.90;;;;;;4966773;28;19922;-79
2024/01/16 13:46:37;;;;;;;;;;;2.00;99.90;;;;;;4962845;28;19918;-77
2024/01/16 13:49:23;;;;;;;;;;;2.00;99.90;;;;;;4957691;28;19922;-77
2024/01/16 13:52:09;;;;;;;;;;;2.00;99.90;;;;;;4956247;29;19919;-77
2024/01/16 13:54:57;;;;;;;;;;;2.00;99.90;;;;;;4957384;28;19933;-78
2024/01/16 13:57:43;;;;;;;;;;;2.10;99.90;;;;;;4975667;28;20414;-77
2024/01/16 14:00:29;;;;;;;;;;;2.10;99.90;;;;;;4956721;28;20326;-78
2024/01/16 14:03:19;;;;;;;;;;;2.20;99.90;;;;;;4981213;28;19918;-77
2024/01/16 14:06:06;;;;;;;;;;;2.10;99.90;;;;;;4957144;28;19915;-78
2024/01/16 14:08:52;;;;;;;;;;;2.00;99.90;;;;;;4975983;28;19914;-77
2024/01/16 14:11:38;;;;;;;;;;;2.00;99.90;;;;;;4975516;28;20239;-78
2024/01/16 14:14:24;;;;;;;;;;;2.10;99.90;;;;;;4974543;28;20318;-78
2024/01/16 14:17:10;;;;;;;;;;;2.10;99.90;;;;;;4975763;28;19918;-77
2024/01/16 14:19:56;;;;;;;;;;;2.10;99.90;;;;;;4963216;28;19924;-77
2024/01/16 14:22:43;;;;;;;;;;;2.00;99.90;;;;;;4974984;28;20425;-77
2024/01/16 14:25:29;;;;;;;;;;;2.00;99.90;;;;;;4968389;28;19922;-78
2024/01/16 14:28:15;;;;;;;;;;;2.00;99.90;;;;;;4970821;28;19918;-78
2024/01/16 14:31:00;;;;;;;;;;;2.00;99.90;;;;;;4970352;28;19938;-77
2024/01/16 14:33:46;;;;;;;;;;;2.00;99.90;;;;;;4954967;29;20287;-78
2024/01/16 14:36:32;;;;;;;;;;;2.10;99.90;;;;;;4969775;28;20322;-78
2024/01/16 14:39:24;;;;;;;;;;;2.00;99.90;;;;;;4950730;28;20315;-77
2024/01/16 14:42:10;;;;;;;;;;;2.10;99.90;;;;;;4974281;28;19929;-77
2024/01/16 14:44:56;;;;;;;;;;;2.00;99.90;;;;;;4956904;28;20328;-77
2024/01/16 14:47:42;;;;;;;;;;;2.00;99.90;;;;;;4955798;29;19953;-77
2024/01/16 14:50:30;;;;;;;;;;;1.90;99.90;;;;;;4972634;28;20239;-78
2024/01/16 14:53:16;;;;;;;;;;;1.90;99.90;;;;;;4970697;28;19951;-77
2024/01/16 14:56:02;;;;;;;;;;;1.90;99.90;;;;;;4956144;29;19927;-78
2024/01/16 14:58:48;;;;;;;;;;;1.90;99.90;;;;;;4959338;28;19919;-78
2024/01/16 15:01:34;;;;;;;;;;;1.80;99.90;;;;;;4947323;28;20626;-78
2024/01/16 15:04:20;;;;;;;;;;;1.80;99.90;;;;;;4973014;28;19928;-77
2024/01/16 15:07:06;;;;;;;;;;;1.80;99.90;;;;;;4981891;28;19918;-77
2024/01/16 15:09:52;;;;;;;;;;;1.80;99.90;;;;;;4961861;28;20000;-78
2024/01/16 15:12:42;;;;;;;;;;;1.80;99.90;;;;;;4961027;28;19958;-77
2024/01/16 15:15:28;;;;;;;;;;;1.80;99.90;;;;;;4957307;28;20328;-77
2024/01/16 15:18:14;;;;;;;;;;;1.80;99.90;;;;;;4974661;28;19958;-77
2024/01/16 15:21:01;;;;;;;;;;;1.90;99.90;;;;;;4982932;28;19928;-77
2024/01/16 15:23:47;;;;;;;;;;;1.80;99.90;;;;;;4950469;28;20320;-77
2024/01/16 15:26:35;;;;;;;;;;;1.80;99.90;;;;;;4958274;28;19918;-77
2024/01/16 15:29:21;;;;;;;;;;;1.70;99.90;;;;;;4979298;28;19994;-77
2024/01/16 15:32:07;;;;;;;;;;;1.70;99.90;;;;;;4966940;28;19942;-77
2024/01/16 15:34:53;;;;;;;;;;;1.70;99.90;;;;;;4958033;28;19919;-77
2024/01/16 15:37:39;;;;;;;;;;;1.70;99.90;;;;;;4975428;28;19929;-76
2024/01/16 15:40:24;;;;;;;;;;;1.70;99.90;;;;;;4961018;28;19949;-77
2024/01/16 15:43:10;;;;;;;;;;;1.60;99.90;;;;;;4972356;28;20012;-77
2024/01/16 15:45:56;;;;;;;;;;;1.60;99.90;;;;;;4962743;28;19925;-77
2024/01/16 15:48:44;;;;;;;;;;;1.60;99.90;;;;;;4983630;28;19918;-77
2024/01/16 15:51:30;;;;;;;;;;;1.60;99.90;;;;;;4983292;28;19925;-77
2024/01/16 15:54:16;;;;;;;;;;;1.60;99.90;;;;;;4972775;28;19960;-77
2024/01/16 15:57:02;;;;;;;;;;;1.60;99.90;;;;;;4983370;28;20360;-77
2024/01/16 15:59:47;;;;;;;;;;;1.60;99.90;;;;;;4987035;28;19953;-76
2024/01/16 16:02:33;;;;;;;;;;;1.50;99.90;;;;;;4997415;28;19925;-76
2024/01/16 16:05:20;;;;;;;;;;;1.50;99.90;;;;;;4978536;28;19988;-76
2024/01/16 16:08:06;;;;;;;;;;;1.50;99.90;;;;;;5002189;28;19918;-77
2024/01/16 16:10:52;;;;;;;;;;;1.50;99.90;;;;;;4993028;28;20016;-76
2024/01/16 16:13:38;;;;;;;;;;;1.40;99.90;;;;;;4995205;28;20662;-77
2024/01/16 16:16:25;;;;;;;;;;;1.30;99.90;;;;;;4974825;28;19922;-77
2024/01/16 16:19:11;;;;;;;;;;;1.30;99.90;;;;;;4963234;28;19917;-76
2024/01/16 16:21:57;;;;;;;;;;;1.20;99.90;;;;;;4984271;28;19929;-77
2024/01/16 16:24:44;;;;;;;;;;;1.20;99.90;;;;;;5002077;28;19921;-76